Time;durP1;ratioP1;P1;durP2;ratioP2;P2;SDS_P1;SDS_P2;PMS_P1;PMS_P2;Temp;Humidity;BMP_temperature;BMP_pressure;BME280_temperature;BME280_humidity;BME280_pressure;Samples;Min_cycle;Max_cycle;Signal;HPM_P1;HPM_P2
2021/10/06 00:00:27;;;;;;;11.50;6.20;;;;;;;14.49;74.15;99165.45;1701297;82;20987;-64
2021/10/06 00:02:56;;;;;;;9.70;6.10;;;;;;;14.50;74.15;99174.16;1703496;82;21033;-64
2021/10/06 00:05:22;;;;;;;10.90;6.25;;;;;;;14.50;74.18;99168.91;1681155;83;21763;-65
2021/10/06 00:07:49;;;;;;;8.60;5.97;;;;;;;14.48;74.22;99174.30;1706102;82;21003;-64
2021/10/06 00:10:16;;;;;;;9.90;6.30;;;;;;;14.48;74.19;99174.30;1710182;82;21015;-64
2021/10/06 00:12:43;;;;;;;19.90;6.85;;;;;;;14.49;74.18;99175.12;1685080;83;21041;-64
2021/10/06 00:15:12;;;;;;;12.45;6.62;;;;;;;14.47;74.18;99173.91;1708910;82;20976;-65
2021/10/06 00:17:41;;;;;;;14.90;6.37;;;;;;;14.46;74.24;99181.44;1709187;81;21145;-65
2021/10/06 00:20:11;;;;;;;12.65;7.08;;;;;;;14.48;74.29;99178.69;1704111;82;21669;-65
2021/10/06 00:22:37;;;;;;;10.93;6.83;;;;;;;14.50;74.32;99185.51;1709919;82;21577;-65
2021/10/06 00:25:05;;;;;;;11.60;6.37;;;;;;;14.52;74.28;99185.44;1695213;82;21003;-64
2021/10/06 00:27:32;;;;;;;8.13;6.17;;;;;;;14.52;74.27;99191.53;1689232;82;21342;-64
2021/10/06 00:29:59;;;;;;;14.33;6.83;;;;;;;14.52;74.26;99188.91;1717421;82;21201;-64
2021/10/06 00:32:26;;;;;;;8.60;6.50;;;;;;;14.52;74.29;99186.28;1713855;82;21037;-65
2021/10/06 00:34:53;;;;;;;12.13;6.45;;;;;;;14.51;74.31;99184.58;1707413;82;21033;-65
2021/10/06 00:37:19;;;;;;;11.05;5.90;;;;;;;14.51;74.32;99179.33;1705830;82;21562;-65
2021/10/06 00:39:46;;;;;;;11.28;6.28;;;;;;;14.51;74.32;99179.33;1690555;83;21118;-64
2021/10/06 00:42:13;;;;;;;10.23;6.50;;;;;;;14.49;74.34;99178.59;1689835;82;22268;-65
2021/10/06 00:44:40;;;;;;;11.60;6.70;;;;;;;14.47;74.35;99185.73;1714865;82;20991;-64
2021/10/06 00:47:13;;;;;;;9.13;6.03;;;;;;;14.46;74.37;99188.00;1716046;82;21145;-64
2021/10/06 00:49:42;;;;;;;9.70;6.70;;;;;;;14.44;74.36;99191.20;1694224;82;21011;-64
2021/10/06 00:52:12;;;;;;;10.90;6.75;;;;;;;14.42;74.36;99189.16;1689727;82;21007;-65
2021/10/06 00:54:39;;;;;;;12.40;6.90;;;;;;;14.40;74.41;99195.02;1684112;82;21050;-64
2021/10/06 00:57:06;;;;;;;;;;;;;;;14.37;74.40;99197.86;1715524;81;21064;-64
2021/10/06 00:59:34;;;;;;;12.13;6.45;;;;;;;14.34;74.41;99200.72;1683055;83;26540;-65
2021/10/06 01:02:01;;;;;;;14.38;6.53;;;;;;;14.30;74.41;99196.61;1688520;82;21039;-65
2021/10/06 01:04:27;;;;;;;18.55;8.00;;;;;;;14.26;74.45;99206.98;1701885;82;21020;-64
2021/10/06 01:06:54;;;;;;;10.05;6.62;;;;;;;14.22;74.50;99209.44;1701675;82;21542;-64
2021/10/06 01:09:26;;;;;;;10.13;7.12;;;;;;;14.19;74.52;99203.92;1685243;82;20991;-65
2021/10/06 01:11:55;;;;;;;12.10;6.78;;;;;;;14.15;74.57;99198.54;1705340;82;21039;-65
2021/10/06 01:14:23;;;;;;;9.73;6.53;;;;;;;14.13;74.59;99204.84;1687436;81;20999;-65
2021/10/06 01:16:52;;;;;;;12.07;7.35;;;;;;;14.10;74.72;99205.41;1704572;81;20992;-65
2021/10/06 01:19:27;;;;;;;10.53;6.47;;;;;;;14.06;74.82;99207.91;1710811;82;21089;-65
2021/10/06 01:21:55;;;;;;;9.75;6.78;;;;;;;14.01;74.86;99199.50;1719243;81;21039;-64
2021/10/06 01:24:24;;;;;;;10.30;6.95;;;;;;;13.96;74.95;99204.23;1715778;82;21110;-64
2021/10/06 01:26:52;;;;;;;10.58;7.03;;;;;;;13.90;75.08;99199.41;1712848;81;20990;-65
2021/10/06 01:29:20;;;;;;;11.43;7.17;;;;;;;13.84;75.18;99207.71;1725967;82;26118;-64
2021/10/06 01:31:49;;;;;;;11.53;7.50;;;;;;;13.76;75.30;99208.23;1707308;82;21091;-65
2021/10/06 01:34:19;;;;;;;13.32;7.55;;;;;;;13.69;75.47;99210.06;1723867;82;21476;-64
2021/10/06 01:36:52;;;;;;;12.70;7.03;;;;;;;13.62;75.59;99206.55;1693639;84;21033;-65
2021/10/06 01:39:21;;;;;;;14.23;7.75;;;;;;;13.58;75.78;99214.27;1724156;82;21569;-64
2021/10/06 01:41:49;;;;;;;9.55;7.03;;;;;;;13.48;75.75;99198.78;1726093;82;21126;-64
2021/10/06 01:44:19;;;;;;;11.78;7.03;;;;;;;13.55;76.10;99205.27;1699368;82;21289;-64
2021/10/06 01:46:46;;;;;;;12.78;7.62;;;;;;;13.51;76.16;99210.37;1722625;81;20947;-64
2021/10/06 01:49:12;;;;;;;;;;;;;;;13.47;76.43;99215.91;1721712;82;21015;-65
2021/10/06 01:51:39;;;;;;;11.73;7.35;;;;;;;13.40;76.46;99210.25;1699179;82;20100;-64
2021/10/06 01:54:08;;;;;;;10.80;6.65;;;;;;;13.35;76.50;99208.41;1712498;82;20995;-64
2021/10/06 01:56:35;;;;;;;12.53;7.47;;;;;;;13.29;76.58;99211.44;1711165;81;21022;-64
2021/10/06 01:59:03;;;;;;;14.63;7.80;;;;;;;13.21;76.68;99216.67;1671783;81;21589;-64
2021/10/06 02:01:30;;;;;;;8.98;6.65;;;;;;;13.16;76.84;99220.09;1718842;81;21149;-65
2021/10/06 02:03:57;;;;;;;12.00;7.55;;;;;;;13.11;76.96;99219.55;1692156;83;28145;-65
2021/10/06 02:06:24;;;;;;;12.50;7.70;;;;;;;13.07;77.17;99218.06;1689809;82;21312;-65
2021/10/06 02:08:51;;;;;;;10.90;7.25;;;;;;;12.89;77.20;99201.77;1698998;81;21475;-65
2021/10/06 02:11:18;;;;;;;8.98;7.42;;;;;;;13.00;77.31;99229.90;1688871;83;21000;-64
2021/10/06 02:13:44;;;;;;;8.70;7.07;;;;;;;12.96;77.38;99233.64;1683247;83;21177;-65
2021/10/06 02:16:11;;;;;;;12.73;7.70;;;;;;;12.92;77.53;99230.86;1725857;81;21656;-64
2021/10/06 02:18:38;;;;;;;9.95;7.33;;;;;;;12.87;77.58;99232.45;1715060;82;21029;-64
2021/10/06 02:21:05;;;;;;;10.35;7.25;;;;;;;12.83;77.72;99228.84;1720415;82;21066;-64
2021/10/06 02:23:31;;;;;;;11.95;7.90;;;;;;;12.83;77.88;99226.23;1717558;82;21050;-65
2021/10/06 02:25:59;;;;;;;13.70;7.85;;;;;;;12.84;78.01;99221.34;1718325;82;21490;-65
2021/10/06 02:28:25;;;;;;;10.93;7.40;;;;;;;12.84;78.06;99223.97;1720671;81;20944;-65
2021/10/06 02:30:52;;;;;;;12.50;9.05;;;;;;;12.85;78.13;99228.25;1713949;82;20959;-65
2021/10/06 02:33:19;;;;;;;13.72;8.10;;;;;;;12.85;78.19;99230.87;1715956;82;21118;-65
2021/10/06 02:35:45;;;;;;;11.83;6.93;;;;;;;12.83;78.28;99225.75;1723541;82;20959;-64
2021/10/06 02:38:12;;;;;;;11.08;7.80;;;;;;;12.83;78.35;99235.39;1724061;82;21495;-64
2021/10/06 02:40:39;;;;;;;12.28;7.80;;;;;;;12.83;78.36;99239.33;1713806;82;20991;-64
2021/10/06 02:43:06;;;;;;;12.50;7.87;;;;;;;12.83;78.46;99243.25;1718290;81;21049;-64
2021/10/06 02:45:33;;;;;;;10.90;7.83;;;;;;;12.82;78.73;99242.86;1698492;82;21946;-64
2021/10/06 02:47:59;;;;;;;12.90;7.60;;;;;;;12.82;78.70;99237.15;1692588;81;21010;-64
2021/10/06 02:50:26;;;;;;;13.68;7.47;;;;;;;12.83;78.66;99240.63;1712869;81;20983;-65
2021/10/06 02:52:53;;;;;;;10.70;8.10;;;;;;;12.84;78.82;99243.14;1697067;82;21040;-65
2021/10/06 02:55:21;;;;;;;13.43;7.87;;;;;;;12.86;78.78;99240.44;1716129;81;20970;-65
2021/10/06 02:57:47;;;;;;;11.55;7.05;;;;;;;12.88;78.93;99238.53;1705993;82;21170;-64
2021/10/06 03:00:16;;;;;;;17.48;8.28;;;;;;;12.89;78.90;99233.20;1692308;81;21030;-64
2021/10/06 03:02:43;;;;;;;10.53;7.58;;;;;;;12.91;79.01;99242.27;1699560;82;20971;-64
2021/10/06 03:05:12;;;;;;;10.80;7.50;;;;;;;12.91;78.98;99247.50;1723034;81;21692;-64
2021/10/06 03:07:40;;;;;;;14.80;8.25;;;;;;;12.94;79.03;99249.95;1716192;82;21054;-65
2021/10/06 03:10:10;;;;;;;11.60;7.60;;;;;;;12.95;79.07;99256.86;1714941;82;21989;-65
2021/10/06 03:12:38;;;;;;;12.95;7.30;;;;;;;12.98;79.17;99261.91;1705006;82;21043;-65
2021/10/06 03:15:08;;;;;;;13.15;7.50;;;;;;;13.01;79.09;99260.39;1720313;81;20983;-65
2021/10/06 03:17:35;;;;;;;10.18;7.58;;;;;;;13.01;79.09;99260.39;1712241;82;21018;-64
2021/10/06 03:20:02;;;;;;;11.17;7.60;;;;;;;13.02;79.21;99272.55;1694060;83;21621;-64
2021/10/06 03:22:29;;;;;;;;;;;;;;;13.06;79.29;99274.05;1721844;82;21095;-64
2021/10/06 03:24:55;;;;;;;11.83;7.97;;;;;;;13.06;79.35;99268.80;1721352;81;20490;-64
2021/10/06 03:27:22;;;;;;;10.30;7.43;;;;;;;13.07;79.34;99267.86;1720308;82;20908;-64
2021/10/06 03:29:49;;;;;;;9.07;7.70;;;;;;;13.09;79.36;99277.78;1713521;82;21007;-65
2021/10/06 03:32:15;;;;;;;9.95;7.20;;;;;;;13.12;79.39;99281.52;1677138;82;21019;-65
2021/10/06 03:34:42;;;;;;;12.75;7.85;;;;;;;13.14;79.47;99273.08;1696477;82;21118;-64
2021/10/06 03:37:09;;;;;;;12.18;8.03;;;;;;;13.18;79.49;99265.38;1716009;82;21006;-65
2021/10/06 03:39:36;;;;;;;11.38;8.05;;;;;;;13.21;79.47;99275.66;1714519;82;21508;-65
2021/10/06 03:42:04;;;;;;;14.00;7.78;;;;;;;13.25;79.47;99274.14;1717380;82;21510;-65
2021/10/06 03:44:31;;;;;;;12.75;7.33;;;;;;;13.27;79.49;99274.45;1722331;82;21197;-65
2021/10/06 03:46:57;;;;;;;13.28;7.83;;;;;;;13.29;79.50;99274.36;1719169;81;21000;-65
2021/10/06 03:49:24;;;;;;;15.20;7.78;;;;;;;13.30;79.48;99279.48;1699577;83;21003;-65
2021/10/06 03:51:50;;;;;;;9.58;7.60;;;;;;;13.31;79.53;99277.73;1722265;82;20957;-65
2021/10/06 03:54:17;;;;;;;17.83;7.70;;;;;;;13.32;79.50;99275.00;1720226;82;21580;-65
2021/10/06 03:56:44;;;;;;;11.85;7.17;;;;;;;13.33;79.49;99281.08;1722422;81;20944;-65
2021/10/06 03:59:11;;;;;;;11.57;7.87;;;;;;;13.34;79.50;99290.64;1710962;82;21059;-65
2021/10/06 04:01:37;;;;;;;13.15;7.72;;;;;;;13.34;79.49;99299.81;1717403;82;21557;-65
2021/10/06 04:04:04;;;;;;;15.48;8.60;;;;;;;13.34;79.59;99301.13;1714113;82;21218;-65
2021/10/06 04:06:31;;;;;;;13.63;8.23;;;;;;;13.33;79.59;99300.73;1712601;82;21486;-65
2021/10/06 04:08:58;;;;;;;10.40;7.78;;;;;;;13.32;79.58;99300.37;1716573;82;21105;-65
2021/10/06 04:11:24;;;;;;;14.50;7.90;;;;;;;13.29;79.62;99304.04;1713091;82;21304;-65
2021/10/06 04:13:51;;;;;;;10.60;8.03;;;;;;;13.30;79.68;99306.19;1716929;82;21036;-65
2021/10/06 04:16:18;;;;;;;11.40;7.60;;;;;;;13.30;79.71;99312.73;1718726;82;20980;-65
2021/10/06 04:18:45;;;;;;;10.67;7.60;;;;;;;13.31;79.77;99314.44;1706983;82;20979;-64
2021/10/06 04:21:11;;;;;;;11.53;7.43;;;;;;;13.32;79.78;99323.98;1713058;81;21010;-65
2021/10/06 04:23:38;;;;;;;11.10;7.47;;;;;;;13.33;79.79;99323.03;1716728;81;22842;-65
2021/10/06 04:26:05;;;;;;;9.23;6.78;;;;;;;13.35;79.80;99326.40;1725204;81;21006;-65
2021/10/06 04:28:31;;;;;;;10.83;7.87;;;;;;;13.35;79.83;99334.27;1681664;83;21752;-65
2021/10/06 04:30:59;;;;;;;14.00;7.73;;;;;;;13.37;79.82;99344.19;1723090;81;21010;-65
2021/10/06 04:33:26;;;;;;;10.93;6.92;;;;;;;13.39;79.86;99356.27;1709474;82;21014;-64
2021/10/06 04:35:52;;;;;;;12.13;7.75;;;;;;;13.39;79.86;99356.27;1693579;82;22094;-65
2021/10/06 04:38:19;;;;;;;10.98;7.65;;;;;;;13.38;79.87;99345.39;1719327;81;20952;-64
2021/10/06 04:40:46;;;;;;;13.62;7.20;;;;;;;13.40;79.92;99353.17;1712198;82;21591;-65
2021/10/06 04:43:13;;;;;;;15.03;7.30;;;;;;;13.42;79.92;99348.67;1720439;82;21030;-65
2021/10/06 04:45:40;;;;;;;12.65;7.72;;;;;;;13.42;79.90;99353.92;1713113;81;20972;-64
2021/10/06 04:48:07;;;;;;;10.28;7.60;;;;;;;13.40;79.88;99353.17;1692559;81;21207;-65
2021/10/06 04:50:34;;;;;;;14.78;7.83;;;;;;;13.40;79.92;99358.41;1723833;81;21581;-65
2021/10/06 04:53:03;;;;;;;13.85;8.28;;;;;;;13.40;79.92;99361.03;1696170;81;20920;-65
2021/10/06 04:55:31;;;;;;;8.83;7.92;;;;;;;13.37;79.67;99373.03;1693288;82;21057;-64
2021/10/06 04:57:58;;;;;;;14.70;8.35;;;;;;;13.37;79.67;99373.03;1722634;81;21019;-64
2021/10/06 05:00:26;;;;;;;14.18;7.75;;;;;;;13.35;79.78;99369.66;1729827;81;24487;-65
2021/10/06 05:02:54;;;;;;;9.30;8.03;;;;;;;13.29;80.07;99377.93;1707707;82;21587;-64
2021/10/06 05:05:20;;;;;;;;;;;;;;;13.29;80.07;99377.93;1725270;81;21069;-65
2021/10/06 05:07:47;;;;;;;11.03;7.53;;;;;;;13.29;80.08;99389.73;1732747;81;20189;-65
2021/10/06 05:10:13;;;;;;;14.13;7.77;;;;;;;13.28;80.09;99390.67;1721217;81;21518;-65
2021/10/06 05:12:40;;;;;;;11.33;8.03;;;;;;;13.27;80.09;99398.16;1716419;82;21871;-65
2021/10/06 05:15:07;;;;;;;15.27;7.73;;;;;;;13.27;80.14;99395.53;1719300;82;21525;-65
2021/10/06 05:17:34;;;;;;;10.65;7.37;;;;;;;13.28;80.14;99390.67;1719723;81;21675;-65
2021/10/06 05:20:01;;;;;;;12.77;7.50;;;;;;;13.25;80.02;99386.44;1703067;82;20948;-64
2021/10/06 05:22:27;;;;;;;12.43;8.30;;;;;;;13.21;80.01;99394.94;1718509;81;20995;-64
2021/10/06 05:24:54;;;;;;;13.78;8.13;;;;;;;13.17;80.05;99397.40;1700419;82;21109;-64
2021/10/06 05:27:21;;;;;;;15.53;9.30;;;;;;;13.14;80.04;99401.53;1699428;82;21581;-64
2021/10/06 05:29:48;;;;;;;16.00;8.63;;;;;;;13.10;80.09;99406.58;1711048;81;20943;-63
2021/10/06 05:32:15;;;;;;;14.55;9.30;;;;;;;13.09;80.15;99402.28;1708010;82;22188;-63
2021/10/06 05:34:42;;;;;;;16.80;9.75;;;;;;;13.07;80.21;99397.59;1689451;81;21113;-63
2021/10/06 05:37:09;;;;;;;14.45;8.93;;;;;;;13.05;80.22;99400.80;1706305;81;21057;-63
2021/10/06 05:39:35;;;;;;;15.30;9.00;;;;;;;13.04;80.22;99396.48;1715217;82;21107;-64
2021/10/06 05:42:03;;;;;;;17.48;8.98;;;;;;;13.02;80.21;99400.97;1721016;82;21062;-63
2021/10/06 05:44:30;;;;;;;;;;;;;;;13.03;80.26;99410.53;1724735;82;21625;-64
2021/10/06 05:46:57;;;;;;;16.97;8.40;;;;;;;13.04;80.33;99417.45;1705407;82;20492;-64
2021/10/06 05:49:23;;;;;;;10.90;8.05;;;;;;;13.06;80.38;99415.58;1717753;81;21041;-62
2021/10/06 05:51:50;;;;;;;11.67;9.53;;;;;;;13.08;80.40;99420.70;1705401;82;21018;-62
2021/10/06 05:54:17;;;;;;;21.17;8.85;;;;;;;13.10;80.43;99415.75;1710067;82;21632;-64
2021/10/06 05:56:44;;;;;;;15.30;8.38;;;;;;;13.12;80.43;99415.19;1718521;81;21802;-64
2021/10/06 05:59:11;;;;;;;11.80;8.30;;;;;;;13.14;80.45;99418.56;1716328;82;21014;-63
2021/10/06 06:01:40;;;;;;;17.57;7.97;;;;;;;13.17;80.47;99421.00;1717404;82;21897;-63
2021/10/06 06:04:11;;;;;;;13.98;8.68;;;;;;;13.25;80.51;99430.14;1720588;81;21099;-64
2021/10/06 06:06:42;;;;;;;13.72;8.80;;;;;;;13.33;80.55;99430.53;1713162;81;21015;-64
2021/10/06 06:09:06;;;;;;;14.00;7.20;;;;;;;13.42;80.48;99435.22;1719799;82;21561;-64
2021/10/06 06:11:35;;;;;;;14.38;8.10;;;;;;;13.52;80.55;99437.61;1716448;82;21057;-63
2021/10/06 06:14:04;;;;;;;20.82;8.23;;;;;;;13.62;80.49;99432.15;1709289;82;21327;-64
2021/10/06 06:16:34;;;;;;;8.93;7.70;;;;;;;13.76;80.46;99430.42;1714789;82;21624;-64
2021/10/06 06:19:01;;;;;;;11.70;7.97;;;;;;;13.93;80.45;99440.66;1685364;83;21019;-64
2021/10/06 06:21:34;;;;;;;15.48;7.53;;;;;;;14.05;80.27;99439.84;1714747;82;21550;-64
2021/10/06 06:24:03;;;;;;;13.95;8.05;;;;;;;14.19;80.12;99448.59;1720083;82;21007;-64
2021/10/06 06:26:30;;;;;;;11.38;7.97;;;;;;;14.25;80.08;99442.92;1717252;82;21099;-63
2021/10/06 06:28:57;;;;;;;14.58;7.72;;;;;;;14.30;79.95;99446.09;1717406;82;20967;-64
2021/10/06 06:31:24;;;;;;;10.68;7.90;;;;;;;14.33;79.87;99449.82;1716699;82;21077;-63
2021/10/06 06:33:51;;;;;;;10.17;7.20;;;;;;;14.41;79.89;99446.20;1718408;82;21517;-63
2021/10/06 06:36:19;;;;;;;11.08;7.67;;;;;;;14.44;79.79;99448.62;1720654;81;21106;-65
2021/10/06 06:38:46;;;;;;;13.18;7.97;;;;;;;14.48;79.82;99442.23;1702889;83;21084;-64
2021/10/06 06:41:13;;;;;;;16.62;7.67;;;;;;;14.60;79.87;99445.84;1720273;82;21514;-65
2021/10/06 06:43:39;;;;;;;11.37;7.73;;;;;;;14.73;79.72;99452.39;1717833;83;20983;-64
2021/10/06 06:46:06;;;;;;;10.63;8.25;;;;;;;14.78;79.58;99455.55;1714066;83;21062;-64
2021/10/06 06:48:33;;;;;;;10.93;7.72;;;;;;;14.84;79.62;99460.37;1716321;81;21007;-64
2021/10/06 06:51:00;;;;;;;10.68;8.10;;;;;;;14.97;79.70;99462.53;1690589;82;22783;-64
2021/10/06 06:53:28;;;;;;;10.63;7.37;;;;;;;15.24;79.87;99455.47;1702537;81;21621;-64
2021/10/06 06:55:59;;;;;;;12.20;7.12;;;;;;;15.50;79.54;99462.81;1699642;82;21747;-64
2021/10/06 06:58:27;;;;;;;11.18;7.45;;;;;;;15.69;79.30;99467.14;1694963;83;21113;-63
2021/10/06 07:00:54;;;;;;;12.88;8.38;;;;;;;15.86;79.07;99470.70;1719821;82;21533;-63
2021/10/06 07:03:21;;;;;;;11.60;7.90;;;;;;;15.92;78.76;99472.52;1726522;82;21791;-63
2021/10/06 07:05:48;;;;;;;14.53;8.15;;;;;;;15.96;78.92;99482.70;1708588;81;21501;-64
2021/10/06 07:08:14;;;;;;;17.10;7.78;;;;;;;15.98;78.64;99483.91;1710233;82;21623;-65
2021/10/06 07:10:43;;;;;;;10.68;6.85;;;;;;;15.97;78.39;99483.56;1711464;81;21753;-64
2021/10/06 07:13:10;;;;;;;11.83;8.18;;;;;;;16.01;78.59;99490.27;1680706;82;21030;-64
2021/10/06 07:15:39;;;;;;;13.40;7.67;;;;;;;16.11;78.50;99487.34;1702618;82;21636;-64
2021/10/06 07:18:07;;;;;;;10.32;7.25;;;;;;;16.16;78.40;99494.42;1710002;81;21018;-64
2021/10/06 07:20:36;;;;;;;11.63;7.37;;;;;;;16.24;78.38;99499.94;1713417;82;21022;-64
2021/10/06 07:23:03;;;;;;;13.72;7.20;;;;;;;16.27;78.15;99506.77;1701298;81;20979;-64
2021/10/06 07:25:30;;;;;;;11.15;7.67;;;;;;;16.19;77.67;99511.31;1679579;82;20983;-63
2021/10/06 07:27:57;;;;;;;14.33;8.95;;;;;;;16.08;77.56;99513.42;1694403;82;21020;-63
2021/10/06 07:30:24;;;;;;;13.00;8.13;;;;;;;16.01;77.37;99519.23;1710026;82;20896;-65
2021/10/06 07:32:51;;;;;;;22.70;14.95;;;;;;;15.86;77.28;99519.88;1697891;82;20957;-64
2021/10/06 07:35:32;;;;;;;11.93;8.73;;;;;;;15.76;77.37;99513.11;1699182;82;20951;-64
2021/10/06 07:37:59;;;;;;;14.23;7.67;;;;;;;15.65;77.26;99527.48;1692804;82;21014;-65
2021/10/06 07:40:29;;;;;;;13.20;7.33;;;;;;;15.59;77.42;99526.13;1698619;82;21947;-65
2021/10/06 07:42:57;;;;;;;14.75;7.62;;;;;;;15.58;77.40;99528.89;1701416;82;21786;-64
2021/10/06 07:45:31;;;;;;;15.35;8.15;;;;;;;15.62;77.49;99536.92;1701760;82;21008;-64
2021/10/06 07:48:00;;;;;;;12.88;8.38;;;;;;;15.71;77.68;99533.69;1699253;82;21063;-64
2021/10/06 07:50:27;;;;;;;14.18;8.08;;;;;;;15.85;77.52;99540.56;1690111;83;20987;-65
2021/10/06 07:52:57;;;;;;;10.18;6.92;;;;;;;15.99;77.30;99547.47;1712501;83;22041;-64
2021/10/06 07:55:24;;;;;;;15.55;8.18;;;;;;;16.01;77.26;99548.20;1701273;82;20976;-64
2021/10/06 08:00:57;;;;;;;10.32;7.62;;;;;;;15.89;76.67;99545.51;1614638;84;21063;-64
2021/10/06 08:03:23;;;;;;;14.10;8.20;;;;;;;15.81;76.71;99550.48;1643225;85;21015;-65
2021/10/06 08:05:52;;;;;;;12.70;7.97;;;;;;;15.75;76.56;99568.52;1667443;85;21941;-73
2021/10/06 08:10:48;;;;;;;12.53;8.13;;;;;;;15.70;76.76;99568.83;1646759;86;21082;-66
2021/10/06 08:13:14;;;;;;;9.25;7.85;;;;;;;15.77;76.86;99570.09;1609738;87;21055;-67
2021/10/06 08:15:41;;;;;;;10.13;7.42;;;;;;;15.91;76.98;99565.61;1675960;85;21064;-68
2021/10/06 08:18:08;;;;;;;17.30;7.50;;;;;;;16.07;76.86;99578.04;1656756;85;21105;-69
2021/10/06 08:20:36;;;;;;;13.08;7.72;;;;;;;16.18;76.70;99582.05;1659594;85;21010;-58
2021/10/06 08:23:06;;;;;;;11.00;7.42;;;;;;;16.29;76.53;99586.55;1669396;84;20988;-65
2021/10/06 08:25:37;;;;;;;13.38;7.95;;;;;;;16.31;76.32;99588.12;1670494;84;21001;-63
2021/10/06 08:28:05;;;;;;;13.98;8.90;;;;;;;16.32;76.32;99589.79;1637075;86;21546;-65
2021/10/06 08:30:32;;;;;;;10.20;8.48;;;;;;;16.26;76.25;99599.47;1655513;85;21377;-60
2021/10/06 08:32:58;;;;;;;13.40;8.83;;;;;;;16.20;75.97;99599.91;1632120;86;21657;-60
2021/10/06 08:35:25;;;;;;;16.73;8.50;;;;;;;16.05;75.79;99603.67;1658970;85;21029;-60
2021/10/06 08:37:52;;;;;;;14.55;8.35;;;;;;;15.92;75.92;99610.27;1630141;87;21048;-59
2021/10/06 08:40:18;;;;;;;13.25;8.80;;;;;;;15.84;75.78;99610.81;1654495;85;21030;-60
2021/10/06 08:42:46;;;;;;;17.60;8.35;;;;;;;15.68;75.59;99607.57;1638571;86;21474;-59
2021/10/06 08:45:15;;;;;;;14.65;8.30;;;;;;;15.58;75.73;99615.25;1659956;85;22363;-60
2021/10/06 08:47:46;;;;;;;14.70;8.90;;;;;;;15.52;75.84;99614.84;1675259;85;20969;-60
2021/10/06 08:50:17;;;;;;;12.53;7.90;;;;;;;15.50;75.77;99624.62;1659996;85;21009;-60
2021/10/06 08:52:47;;;;;;;11.65;7.67;;;;;;;15.41;75.73;99627.42;1664340;85;21025;-60
2021/10/06 08:55:16;;;;;;;12.03;7.45;;;;;;;15.38;75.78;99631.58;1668733;84;22842;-60
2021/10/06 08:57:44;;;;;;;15.35;7.37;;;;;;;15.32;75.65;99635.92;1664339;85;20989;-60
2021/10/06 09:00:12;;;;;;;11.15;7.65;;;;;;;15.27;75.74;99637.58;1631936;86;20970;-60
2021/10/06 09:02:43;;;;;;;11.28;8.20;;;;;;;15.24;75.70;99643.05;1646668;85;21611;-60
2021/10/06 09:05:12;;;;;;;9.18;7.65;;;;;;;15.18;75.80;99639.52;1645613;86;21105;-60
2021/10/06 09:07:58;;;;;;;9.50;7.30;;;;;;;15.16;75.73;99645.34;1671672;84;21137;-60
2021/10/06 09:10:32;;;;;;;12.88;7.65;;;;;;;15.11;75.71;99650.06;1616482;86;21105;-61
2021/10/06 09:13:07;;;;;;;14.50;8.05;;;;;;;15.10;75.71;99651.03;1646484;86;21381;-61
2021/10/06 09:15:48;;;;;;;10.08;7.42;;;;;;;15.06;75.84;99642.95;1643438;86;21092;-61
2021/10/06 09:18:22;;;;;;;16.75;9.33;;;;;;;15.10;75.90;99649.71;1673795;84;21061;-61
2021/10/06 09:20:50;;;;;;;18.87;10.78;;;;;;;15.09;75.90;99659.36;1680227;84;21908;-60
2021/10/06 09:23:21;;;;;;;17.17;10.15;;;;;;;15.08;75.88;99665.58;1660946;85;21049;-60
2021/10/06 09:25:56;;;;;;;20.62;10.78;;;;;;;15.02;75.71;99676.98;1671961;83;21462;-61
2021/10/06 09:28:42;;;;;;;23.92;15.23;;;;;;;14.85;75.75;99680.25;1667866;84;21069;-61
2021/10/06 09:31:16;;;;;;;24.77;17.35;;;;;;;14.67;75.80;99682.75;1668365;84;21015;-61
2021/10/06 09:33:49;;;;;;;24.37;18.50;;;;;;;14.45;75.95;99689.37;1673213;84;21124;-61
2021/10/06 09:36:30;;;;;;;23.77;14.87;;;;;;;14.31;76.17;99686.75;1646201;86;20963;-60
2021/10/06 09:39:01;;;;;;;20.52;11.80;;;;;;;14.15;76.25;99688.69;1667676;84;21540;-61
2021/10/06 09:41:49;;;;;;;20.70;10.40;;;;;;;14.00;76.40;99692.64;1607185;87;21062;-60
2021/10/06 09:44:21;;;;;;;15.68;9.65;;;;;;;13.90;76.60;99705.95;1646485;86;21048;-60
2021/10/06 09:47:00;;;;;;;12.53;9.73;;;;;;;13.75;76.71;99702.92;1678787;84;21606;-60
2021/10/06 09:49:34;;;;;;;15.05;9.63;;;;;;;13.66;76.93;99704.33;1680686;85;21069;-60
2021/10/06 09:52:31;;;;;;;16.00;9.95;;;;;;;13.57;76.96;99724.09;1662861;85;21607;-60
2021/10/06 09:55:07;;;;;;;11.35;8.45;;;;;;;13.43;77.13;99725.38;1650051;85;21596;-60
2021/10/06 09:57:40;;;;;;;10.63;8.18;;;;;;;13.29;77.25;99731.91;1636952;85;20969;-60
2021/10/06 10:00:19;;;;;;;12.70;8.55;;;;;;;13.17;77.44;99732.13;1647097;85;21108;-60
2021/10/06 10:02:45;;;;;;;13.10;8.78;;;;;;;13.11;77.68;99728.08;1617226;87;20987;-60
2021/10/06 10:05:14;;;;;;;10.15;8.53;;;;;;;13.10;77.87;99725.06;1626863;86;21010;-61
2021/10/06 10:07:44;;;;;;;11.93;7.42;;;;;;;13.12;77.95;99729.75;1629334;86;21100;-60
2021/10/06 10:10:13;;;;;;;8.60;7.62;;;;;;;13.10;78.07;99721.13;1627131;87;21045;-60
2021/10/06 10:12:43;;;;;;;10.38;7.78;;;;;;;13.09;78.19;99716.83;1627739;86;21471;-60
2021/10/06 10:15:12;;;;;;;9.53;7.78;;;;;;;13.11;78.38;99716.28;1632824;86;20984;-60
2021/10/06 10:17:39;;;;;;;9.60;7.35;;;;;;;13.14;78.46;99719.20;1632222;85;21898;-60
2021/10/06 10:20:16;;;;;;;9.65;7.12;;;;;;;13.15;78.54;99723.50;1636470;86;21214;-60
2021/10/06 10:22:49;;;;;;;11.25;7.12;;;;;;;13.18;78.69;99728.08;1628340;86;21677;-60
2021/10/06 10:25:25;;;;;;;10.72;6.42;;;;;;;13.17;78.80;99739.52;1628130;86;21237;-61
2021/10/06 10:28:05;;;;;;;8.60;6.50;;;;;;;13.15;78.67;99755.80;1628237;86;21950;-60
2021/10/06 10:30:35;;;;;;;7.55;6.50;;;;;;;13.14;79.14;99759.36;1623244;86;21004;-67
2021/10/06 10:33:02;;;;;;;10.80;6.85;;;;;;;13.11;79.13;99758.70;1630679;86;21834;-60
2021/10/06 10:35:39;;;;;;;9.45;7.40;;;;;;;13.01;79.64;99758.36;1632018;86;21563;-59
2021/10/06 10:38:16;;;;;;;9.53;7.97;;;;;;;13.01;79.64;99758.36;1634494;85;21108;-59
2021/10/06 10:40:48;;;;;;;12.95;8.43;;;;;;;12.95;79.59;99769.19;1602280;88;21096;-59
2021/10/06 10:43:31;;;;;;;9.75;8.28;;;;;;;12.82;79.82;99749.37;1643349;86;21076;-59
2021/10/06 10:46:09;;;;;;;10.85;8.38;;;;;;;12.82;79.82;99749.37;1629756;86;21020;-58
2021/10/06 10:49:03;;;;;;;10.18;8.35;;;;;;;12.97;80.08;99777.83;1631737;86;21060;-60
2021/10/06 10:51:56;;;;;;;11.90;7.80;;;;;;;13.02;80.23;99763.97;1627575;86;22092;-60
2021/10/06 10:54:33;;;;;;;10.75;7.72;;;;;;;13.07;80.28;99765.87;1629112;86;21121;-59
2021/10/06 10:57:07;;;;;;;7.72;6.90;;;;;;;13.14;80.36;99771.63;1632175;86;21152;-59
2021/10/06 10:59:45;;;;;;;9.43;6.75;;;;;;;13.15;80.36;99772.00;1635649;86;21094;-59
2021/10/06 11:02:31;;;;;;;10.25;7.80;;;;;;;13.26;80.71;99780.59;1625564;86;21151;-60
2021/10/06 11:05:10;;;;;;;9.23;7.67;;;;;;;13.43;80.86;99781.30;1616731;86;21188;-60
2021/10/06 11:07:52;;;;;;;10.08;7.45;;;;;;;13.68;80.99;99789.52;1606922;86;20975;-59
2021/10/06 11:10:22;;;;;;;11.75;7.37;;;;;;;13.90;80.96;99779.44;1631727;85;21083;-59
2021/10/06 11:13:05;;;;;;;8.83;7.30;;;;;;;14.07;80.95;99797.63;1627653;86;21139;-60
2021/10/06 11:15:27;;;;;;;9.60;7.30;;;;;;;14.12;80.71;99788.66;1604062;88;21069;-60
2021/10/06 11:18:18;;;;;;;10.98;7.30;;;;;;;14.08;80.86;99783.56;1628581;86;21135;-59
2021/10/06 11:21:04;;;;;;;9.15;6.70;;;;;;;14.18;80.75;99785.64;1600220;88;21101;-60
2021/10/06 11:23:36;;;;;;;9.30;6.97;;;;;;;14.14;80.77;99794.63;1614310;87;21727;-60
2021/10/06 11:26:11;;;;;;;9.63;7.22;;;;;;;14.13;80.96;99798.20;1629988;86;21059;-59
2021/10/06 11:28:42;;;;;;;8.73;7.17;;;;;;;14.15;81.08;99805.05;1634554;86;21385;-59
2021/10/06 11:31:12;;;;;;;8.35;7.05;;;;;;;14.18;81.17;99798.30;1634488;86;21276;-60
2021/10/06 11:33:41;;;;;;;8.90;6.50;;;;;;;14.18;81.07;99801.41;1631501;86;21010;-60
2021/10/06 11:36:16;;;;;;;12.63;7.00;;;;;;;14.12;80.98;99805.24;1631396;86;20981;-60
2021/10/06 11:38:51;;;;;;;8.03;7.20;;;;;;;13.98;80.89;99808.70;1613054;87;21566;-60
2021/10/06 11:41:19;;;;;;;8.43;7.12;;;;;;;13.88;81.13;99814.11;1601812;88;21023;-59